createdAt,value
2019-02-27T00:00:09.173Z,47.20
2019-02-27T00:02:42.862Z,47.20
2019-02-27T00:05:14.942Z,47.10
2019-02-27T00:07:47.418Z,47.00
2019-02-27T00:10:19.876Z,47.20
2019-02-27T00:12:52.877Z,47.20
2019-02-27T00:15:25.099Z,47.20
2019-02-27T00:17:57.878Z,47.10
2019-02-27T00:20:30.384Z,47.10
2019-02-27T00:23:02.912Z,47.10
2019-02-27T00:25:36.090Z,47.20
2019-02-27T00:28:08.282Z,47.00
2019-02-27T00:30:41.363Z,47.30
2019-02-27T00:33:13.932Z,47.40
2019-02-27T00:35:46.923Z,47.10
2019-02-27T00:38:19.340Z,47.30
2019-02-27T00:40:51.885Z,47.10
2019-02-27T00:43:25.973Z,47.30
2019-02-27T00:45:59.443Z,47.30
2019-02-27T00:48:31.871Z,47.20
2019-02-27T00:51:04.328Z,47.40
2019-02-27T00:53:36.883Z,47.30
2019-02-27T00:56:11.961Z,47.40
2019-02-27T00:58:43.331Z,47.40
2019-02-27T01:01:15.916Z,48.50
2019-02-27T01:03:48.505Z,47.70
2019-02-27T01:06:20.890Z,47.80
2019-02-27T01:08:52.846Z,47.70
2019-02-27T01:11:24.923Z,47.70
2019-02-27T01:13:58.069Z,47.60
2019-02-27T01:16:30.870Z,47.70
2019-02-27T01:19:04.781Z,47.60
2019-02-27T01:21:36.907Z,47.50
2019-02-27T01:24:09.346Z,47.30
2019-02-27T01:26:41.909Z,47.60
2019-02-27T01:29:15.685Z,47.70
2019-02-27T01:31:48.296Z,47.60
2019-02-27T01:34:20.855Z,47.40
2019-02-27T01:36:54.860Z,47.70
2019-02-27T01:39:27.884Z,47.60
2019-02-27T01:42:00.347Z,47.50
2019-02-27T01:44:34.876Z,47.60
2019-02-27T01:47:06.905Z,47.40
2019-02-27T01:49:38.910Z,47.60
2019-02-27T01:52:11.327Z,47.50
2019-02-27T01:54:46.093Z,47.70
2019-02-27T01:57:17.872Z,47.50
2019-02-27T01:59:50.968Z,47.30
2019-02-27T02:02:23.593Z,47.70
2019-02-27T02:04:55.883Z,47.50
2019-02-27T02:07:28.030Z,47.80
2019-02-27T02:10:00.868Z,47.60
2019-02-27T02:12:35.434Z,47.70
2019-02-27T02:16:17.495Z,47.60
2019-02-27T02:19:54.711Z,47.60
2019-02-27T02:23:27.314Z,47.50
2019-02-27T02:27:25.590Z,47.60
2019-02-27T02:37:27.346Z,47.00
2019-02-27T02:40:47.908Z,47.70
2019-02-27T02:44:20.591Z,47.70
2019-02-27T02:48:05.615Z,47.80
2019-02-27T02:51:52.884Z,47.60
2019-02-27T02:55:36.894Z,47.50
2019-02-27T02:59:14.559Z,47.90
2019-02-27T03:02:42.883Z,47.80
2019-02-27T03:06:36.185Z,48.20
2019-02-27T03:10:31.085Z,47.60
2019-02-27T03:14:00.875Z,47.80
2019-02-27T03:18:29.722Z,47.80
2019-02-27T03:22:04.711Z,47.80
2019-02-27T03:25:44.390Z,47.90
2019-02-27T03:29:33.932Z,47.60
2019-02-27T03:33:08.019Z,47.90
2019-02-27T03:37:23.554Z,47.70
2019-02-27T03:41:13.405Z,47.90
2019-02-27T03:44:41.019Z,47.30
2019-02-27T03:47:56.911Z,47.70
2019-02-27T03:51:44.877Z,47.70
2019-02-27T03:55:41.467Z,47.90
2019-02-27T03:59:23.344Z,47.90
2019-02-27T04:02:43.611Z,48.00
2019-02-27T04:06:43.331Z,48.00
2019-02-27T04:09:18.828Z,47.50
2019-02-27T04:11:49.848Z,47.70
2019-02-27T04:14:40.146Z,47.50
2019-02-27T04:17:09.336Z,47.50
2019-02-27T04:19:41.848Z,47.40
2019-02-27T04:22:14.631Z,47.70
2019-02-27T04:24:46.892Z,47.70
2019-02-27T04:27:21.189Z,47.40
2019-02-27T04:29:52.590Z,47.70
2019-02-27T04:32:25.319Z,47.20
2019-02-27T04:34:57.877Z,47.30
2019-02-27T04:37:30.110Z,47.70
2019-02-27T04:40:02.409Z,47.70
2019-02-27T04:42:34.867Z,47.60
2019-02-27T04:45:09.809Z,47.50
2019-02-27T04:47:41.340Z,47.60
2019-02-27T04:50:13.846Z,48.60
2019-02-27T04:52:45.913Z,48.70
2019-02-27T04:55:17.890Z,47.90
2019-02-27T04:57:49.883Z,47.70
2019-02-27T05:00:26.089Z,48.00
2019-02-27T05:02:56.101Z,47.90
2019-02-27T05:05:28.444Z,48.10
2019-02-27T05:08:00.913Z,47.90
2019-02-27T05:10:33.878Z,47.80
2019-02-27T05:13:06.335Z,47.90
2019-02-27T05:15:39.633Z,48.20
2019-02-27T05:18:10.916Z,48.00
2019-02-27T05:20:45.759Z,47.60
2019-02-27T05:23:16.921Z,47.50
2019-02-27T05:25:49.846Z,47.60
2019-02-27T05:28:22.004Z,47.60
2019-02-27T05:30:54.424Z,47.70
2019-02-27T05:33:26.971Z,47.80
2019-02-27T05:35:59.330Z,47.60
2019-02-27T05:38:31.869Z,48.20
2019-02-27T05:41:04.856Z,47.70
2019-02-27T05:43:36.909Z,47.50
2019-02-27T05:46:09.077Z,47.60
2019-02-27T05:48:41.851Z,47.50
2019-02-27T05:51:13.930Z,47.80
2019-02-27T05:53:46.333Z,47.50
2019-02-27T05:56:18.849Z,47.60
2019-02-27T05:58:50.836Z,47.40
2019-02-27T06:01:28.025Z,47.50
2019-02-27T06:04:00.930Z,47.50
2019-02-27T06:06:33.326Z,47.40
2019-02-27T06:09:09.885Z,47.90
2019-02-27T06:11:43.377Z,47.90
2019-02-27T06:14:21.163Z,48.00
2019-02-27T06:17:05.396Z,48.10
2019-02-27T06:19:35.490Z,48.30
2019-02-27T06:22:08.333Z,48.30
2019-02-27T06:24:43.073Z,48.40
2019-02-27T06:27:14.879Z,48.00
2019-02-27T06:29:47.042Z,48.00
2019-02-27T06:32:19.907Z,48.30
2019-02-27T06:34:52.095Z,48.30
2019-02-27T06:37:25.057Z,48.40
2019-02-27T06:40:01.946Z,48.40
2019-02-27T06:42:34.409Z,48.20
2019-02-27T06:45:10.241Z,48.50
2019-02-27T06:47:43.874Z,48.50
2019-02-27T06:50:17.473Z,48.50
2019-02-27T06:52:49.887Z,48.20
2019-02-27T06:55:22.329Z,48.50
2019-02-27T06:57:54.809Z,48.40
2019-02-27T07:00:27.147Z,48.60
2019-02-27T07:02:59.866Z,48.30
2019-02-27T07:05:32.328Z,48.50
2019-02-27T07:08:05.345Z,48.70
2019-02-27T07:10:38.154Z,48.50
2019-02-27T07:13:10.870Z,48.50
2019-02-27T07:15:47.763Z,48.40
2019-02-27T07:20:49.978Z,48.30
2019-02-27T07:23:23.653Z,48.90
2019-02-27T07:25:55.935Z,48.50
2019-02-27T07:28:27.895Z,48.60
2019-02-27T07:31:00.101Z,48.50
2019-02-27T07:33:32.499Z,48.40
2019-02-27T07:36:05.357Z,48.30
2019-02-27T07:38:37.916Z,48.20
2019-02-27T07:41:10.530Z,48.10
2019-02-27T07:43:42.867Z,48.30
2019-02-27T07:46:15.325Z,48.30
2019-02-27T07:48:47.861Z,48.30
2019-02-27T07:51:20.842Z,48.40
2019-02-27T07:53:53.836Z,48.40
2019-02-27T07:56:27.359Z,47.90
2019-02-27T07:58:59.888Z,48.30
2019-02-27T08:01:31.908Z,48.30
2019-02-27T08:04:07.006Z,48.50
2019-02-27T08:06:41.418Z,48.40
2019-02-27T08:09:14.105Z,48.20
2019-02-27T08:11:47.381Z,47.40
2019-02-27T08:14:20.902Z,47.90
2019-02-27T08:16:57.120Z,48.00
2019-02-27T08:19:28.042Z,47.70
2019-02-27T08:22:00.891Z,47.60
2019-02-27T08:24:33.767Z,48.00
2019-02-27T08:27:07.093Z,47.70
2019-02-27T08:29:40.325Z,47.60
2019-02-27T08:32:12.841Z,48.10
2019-02-27T08:34:45.301Z,48.60
2019-02-27T08:37:20.199Z,47.90
2019-02-27T08:39:52.037Z,47.80
2019-02-27T08:42:24.283Z,47.90
2019-02-27T08:44:56.886Z,47.90
2019-02-27T08:47:29.153Z,47.30
2019-02-27T08:50:01.870Z,47.50
2019-02-27T08:54:11.069Z,47.40
2019-02-27T08:56:44.142Z,47.10
2019-02-27T08:59:17.878Z,47.80
2019-02-27T09:01:55.391Z,46.70
2019-02-27T09:04:25.293Z,47.10
2019-02-27T09:07:02.329Z,47.00
2019-02-27T09:09:32.832Z,47.20
2019-02-27T09:12:05.010Z,46.70
2019-02-27T09:14:37.323Z,47.00
2019-02-27T09:17:10.372Z,47.00
2019-02-27T09:19:45.504Z,47.00
2019-02-27T09:22:16.862Z,47.30
2019-02-27T09:24:49.374Z,46.80
2019-02-27T09:27:22.031Z,47.10
2019-02-27T09:29:54.897Z,47.10
2019-02-27T09:32:28.324Z,46.90
2019-02-27T09:35:00.863Z,47.10
2019-02-27T09:37:33.866Z,47.00
2019-02-27T09:40:06.839Z,46.80
2019-02-27T09:42:38.895Z,46.90
2019-02-27T09:45:28.612Z,47.10
2019-02-27T09:48:00.927Z,47.10
2019-02-27T09:50:39.842Z,46.70
2019-02-27T09:53:11.899Z,46.90
2019-02-27T09:55:44.297Z,46.80
2019-02-27T09:58:16.882Z,46.90
2019-02-27T10:01:19.846Z,47.10
2019-02-27T10:03:54.535Z,46.80
2019-02-27T10:06:24.934Z,46.90
2019-02-27T10:08:58.994Z,46.80
2019-02-27T10:11:30.896Z,47.00
2019-02-27T10:14:03.089Z,47.00
2019-02-27T10:16:35.721Z,46.70
2019-02-27T10:19:06.713Z,47.00
2019-02-27T10:21:37.880Z,46.50
2019-02-27T10:24:09.838Z,46.40
2019-02-27T10:26:42.330Z,46.70
2019-02-27T10:29:14.807Z,46.80
2019-02-27T10:31:46.789Z,46.80
2019-02-27T10:34:18.939Z,46.10
2019-02-27T10:36:51.066Z,46.10
2019-02-27T10:39:23.912Z,46.00
2019-02-27T10:41:56.000Z,45.80
2019-02-27T10:44:28.320Z,46.30
2019-02-27T10:47:00.949Z,46.60
2019-02-27T10:49:33.314Z,46.60
2019-02-27T10:52:05.866Z,45.80
2019-02-27T10:54:39.418Z,46.10
2019-02-27T10:57:13.425Z,46.10
2019-02-27T10:59:45.883Z,46.20
2019-02-27T11:02:18.011Z,45.90
2019-02-27T11:04:50.281Z,46.20
2019-02-27T11:07:23.104Z,46.00
2019-02-27T11:09:55.430Z,45.90
2019-02-27T11:12:29.431Z,45.70
2019-02-27T11:15:02.324Z,45.60
2019-02-27T11:17:34.904Z,45.30
2019-02-27T11:20:07.475Z,45.90
2019-02-27T11:22:39.921Z,45.70
2019-02-27T11:25:17.002Z,45.70
2019-02-27T11:27:49.338Z,45.80
2019-02-27T11:32:23.938Z,45.90
2019-02-27T11:34:56.895Z,45.40
2019-02-27T11:37:29.338Z,45.70
2019-02-27T11:40:10.541Z,45.50
2019-02-27T11:42:42.920Z,45.80
2019-02-27T11:45:15.469Z,45.60
2019-02-27T11:47:48.210Z,45.50
2019-02-27T11:50:21.123Z,45.30
2019-02-27T11:52:53.875Z,45.40
2019-02-27T11:55:26.323Z,45.60
2019-02-27T11:57:58.884Z,45.50
2019-02-27T12:00:31.512Z,45.60
2019-02-27T12:03:03.863Z,45.20
2019-02-27T12:05:36.394Z,45.90
2019-02-27T12:08:08.922Z,46.00
2019-02-27T12:10:40.983Z,45.80
2019-02-27T12:13:13.328Z,45.50
2019-02-27T12:15:46.337Z,45.70
2019-02-27T12:18:19.095Z,45.80
2019-02-27T12:20:53.950Z,46.00
2019-02-27T12:23:26.096Z,45.50
2019-02-27T12:25:59.953Z,45.00
2019-02-27T12:28:34.045Z,45.30
2019-02-27T12:31:10.942Z,45.30
2019-02-27T12:33:42.670Z,46.10
2019-02-27T12:36:16.045Z,45.20
2019-02-27T12:38:48.923Z,45.10
2019-02-27T12:41:21.665Z,44.40
2019-02-27T12:43:53.841Z,44.60
2019-02-27T12:46:25.959Z,45.10
2019-02-27T12:48:58.011Z,45.60
2019-02-27T12:51:30.478Z,45.70
2019-02-27T12:54:03.310Z,45.70
2019-02-27T12:56:35.912Z,45.60
2019-02-27T12:59:08.048Z,46.10
2019-02-27T13:01:40.336Z,45.50
2019-02-27T13:04:16.106Z,45.60
2019-02-27T13:06:47.129Z,45.50
2019-02-27T13:09:19.894Z,45.30
2019-02-27T13:11:51.912Z,45.50
2019-02-27T13:14:23.865Z,45.60
2019-02-27T13:16:56.064Z,45.10
2019-02-27T13:19:29.359Z,44.80
2019-02-27T13:22:01.893Z,45.30
2019-02-27T13:24:34.341Z,45.30
2019-02-27T13:27:09.368Z,45.40
2019-02-27T13:29:41.438Z,45.20
2019-02-27T13:32:13.879Z,45.60
2019-02-27T13:34:48.306Z,45.50
2019-02-27T13:37:18.819Z,45.50
2019-02-27T13:39:50.844Z,45.20
2019-02-27T13:42:23.326Z,45.40
2019-02-27T13:44:55.899Z,45.40
2019-02-27T13:47:28.695Z,45.20
2019-02-27T13:50:01.921Z,45.00
2019-02-27T13:52:33.933Z,45.00
2019-02-27T13:55:10.856Z,45.20
2019-02-27T13:57:40.356Z,45.30
2019-02-27T14:00:27.881Z,45.30
2019-02-27T14:03:00.335Z,45.30
2019-02-27T14:05:36.138Z,45.20
2019-02-27T14:08:06.921Z,44.60
2019-02-27T14:10:39.075Z,44.50
2019-02-27T14:13:11.518Z,45.10
2019-02-27T14:15:44.096Z,45.20
2019-02-27T14:18:16.856Z,45.20
2019-02-27T14:20:48.903Z,45.20
2019-02-27T14:23:22.106Z,45.20
2019-02-27T14:25:54.675Z,45.30
2019-02-27T14:28:27.335Z,45.20
2019-02-27T14:30:59.958Z,44.80
2019-02-27T14:33:32.813Z,45.10
2019-02-27T14:36:08.328Z,45.20
2019-02-27T14:38:39.331Z,45.10
2019-02-27T14:41:14.569Z,45.10
2019-02-27T14:43:44.796Z,45.10
2019-02-27T14:46:17.891Z,44.90
2019-02-27T14:48:52.375Z,45.20
2019-02-27T14:51:24.851Z,45.10
2019-02-27T14:53:57.024Z,45.10
2019-02-27T14:56:29.324Z,45.10
2019-02-27T14:59:01.877Z,44.80
2019-02-27T15:01:37.322Z,45.10
2019-02-27T15:04:10.103Z,45.10
2019-02-27T15:06:43.284Z,44.80
2019-02-27T15:09:16.336Z,43.90
2019-02-27T15:11:48.912Z,43.50
2019-02-27T15:14:21.011Z,43.30
2019-02-27T15:16:53.096Z,42.70
2019-02-27T15:19:26.927Z,42.60
2019-02-27T15:22:00.337Z,41.30
2019-02-27T15:24:34.932Z,41.90
2019-02-27T15:27:06.919Z,41.50
2019-02-27T15:29:40.296Z,41.10
2019-02-27T15:32:12.812Z,41.30
2019-02-27T15:34:46.009Z,41.20
2019-02-27T15:37:17.737Z,39.70
2019-02-27T15:39:55.922Z,40.40
2019-02-27T15:42:28.364Z,39.80
2019-02-27T15:45:00.848Z,38.00
2019-02-27T15:47:33.900Z,39.20
2019-02-27T15:50:07.334Z,39.70
2019-02-27T15:52:40.677Z,41.20
2019-02-27T15:55:13.969Z,40.80
2019-02-27T15:57:49.311Z,40.50
2019-02-27T16:00:23.324Z,40.90
2019-02-27T16:02:56.102Z,39.80
2019-02-27T16:05:31.254Z,39.70
2019-02-27T16:08:05.755Z,41.30
2019-02-27T16:10:42.692Z,39.60
2019-02-27T16:13:13.885Z,38.70
2019-02-27T16:15:48.537Z,39.30
2019-02-27T16:18:21.017Z,40.30
2019-02-27T16:20:53.890Z,40.60
2019-02-27T16:23:26.384Z,39.60
2019-02-27T16:25:59.326Z,38.60
2019-02-27T16:28:32.007Z,39.10
2019-02-27T16:31:06.328Z,39.40
2019-02-27T16:33:38.826Z,39.40
2019-02-27T16:36:12.871Z,39.50
2019-02-27T16:43:49.886Z,38.20
2019-02-27T16:46:22.890Z,38.90
2019-02-27T16:48:55.321Z,38.70
2019-02-27T16:51:27.889Z,39.10
2019-02-27T16:53:59.884Z,39.10
2019-02-27T16:56:32.016Z,39.00
2019-02-27T16:59:07.460Z,38.50
2019-02-27T17:01:37.950Z,38.20
2019-02-27T17:04:11.419Z,37.80
2019-02-27T17:06:44.034Z,38.20
2019-02-27T17:09:16.909Z,38.30
2019-02-27T17:11:49.002Z,39.20
2019-02-27T17:14:24.392Z,38.40
2019-02-27T17:16:55.864Z,38.50
2019-02-27T17:19:28.432Z,39.00
2019-02-27T17:22:00.886Z,39.20
2019-02-27T17:24:33.054Z,38.80
2019-02-27T17:27:05.060Z,40.00
2019-02-27T17:29:37.289Z,39.40
2019-02-27T17:32:09.814Z,39.20
2019-02-27T17:34:41.798Z,38.40
2019-02-27T17:37:13.737Z,38.10
2019-02-27T17:39:45.508Z,38.00
2019-02-27T17:42:18.530Z,37.60
2019-02-27T17:44:51.309Z,37.40
2019-02-27T17:47:22.902Z,37.80
2019-02-27T17:49:57.422Z,37.50
2019-02-27T17:52:29.351Z,36.60
2019-02-27T17:55:03.494Z,36.20
2019-02-27T17:57:35.141Z,35.80
2019-02-27T18:00:12.926Z,36.30
2019-02-27T18:02:44.761Z,36.40
2019-02-27T18:05:16.429Z,36.30
2019-02-27T18:07:48.393Z,36.50
2019-02-27T18:10:20.324Z,37.50
2019-02-27T18:12:52.301Z,37.60
2019-02-27T18:15:24.312Z,37.80
2019-02-27T18:17:56.445Z,37.60
2019-02-27T18:20:28.433Z,38.60
2019-02-27T18:23:00.367Z,39.70
2019-02-27T18:25:32.730Z,38.50
2019-02-27T18:28:04.632Z,41.00
2019-02-27T18:30:36.803Z,42.40
2019-02-27T18:33:13.534Z,42.30
2019-02-27T18:35:42.794Z,42.60
2019-02-27T18:38:14.806Z,43.00
2019-02-27T18:40:46.785Z,41.70
2019-02-27T18:43:20.862Z,39.20
2019-02-27T18:45:52.762Z,39.60
2019-02-27T18:48:24.744Z,38.30
2019-02-27T18:50:56.011Z,38.00
2019-02-27T18:53:29.301Z,37.80
2019-02-27T18:56:02.662Z,37.40
2019-02-27T18:58:33.597Z,37.90
2019-02-27T19:01:09.696Z,37.50
2019-02-27T19:03:40.723Z,36.70
2019-02-27T19:06:12.334Z,37.60
2019-02-27T19:08:45.053Z,37.20
2019-02-27T19:11:16.780Z,37.90
2019-02-27T19:13:48.774Z,37.50
2019-02-27T19:16:20.759Z,37.30
2019-02-27T19:18:53.362Z,38.40
2019-02-27T19:21:25.300Z,39.20
2019-02-27T19:23:57.063Z,40.00
2019-02-27T19:26:28.789Z,39.90
2019-02-27T19:29:00.301Z,40.50
2019-02-27T19:31:32.398Z,43.00
2019-02-27T19:34:04.307Z,42.90
2019-02-27T19:36:36.308Z,43.10
2019-02-27T19:39:09.296Z,43.60
2019-02-27T19:41:41.303Z,43.50
2019-02-27T19:44:13.537Z,43.70
2019-02-27T19:46:51.770Z,43.70
2019-02-27T19:49:23.271Z,43.40
2019-02-27T19:51:57.751Z,43.80
2019-02-27T19:54:29.747Z,44.00
2019-02-27T19:57:01.843Z,44.30
2019-02-27T19:59:53.302Z,44.20
2019-02-27T20:02:25.866Z,44.20
2019-02-27T20:04:57.750Z,44.50
2019-02-27T20:07:28.544Z,44.50
2019-02-27T20:10:00.350Z,44.70
2019-02-27T20:12:32.639Z,44.50
2019-02-27T20:20:07.768Z,44.10
2019-02-27T20:22:38.607Z,44.40
2019-02-27T20:25:13.754Z,44.90
2019-02-27T20:27:44.908Z,44.70
2019-02-27T20:30:19.634Z,45.00
2019-02-27T20:32:51.861Z,45.00
2019-02-27T20:35:23.757Z,44.60
2019-02-27T20:37:54.648Z,45.30
2019-02-27T20:40:27.830Z,45.10
2019-02-27T20:43:00.309Z,44.80
2019-02-27T20:45:33.029Z,45.40
2019-02-27T20:48:08.869Z,45.30
2019-02-27T20:50:45.295Z,45.40
2019-02-27T20:53:21.052Z,45.10
2019-02-27T20:55:52.323Z,44.90
2019-02-27T20:58:24.933Z,45.60
2019-02-27T21:00:57.872Z,45.20
2019-02-27T21:03:30.343Z,45.40
2019-02-27T21:06:03.041Z,45.50
2019-02-27T21:08:36.122Z,45.50
2019-02-27T21:11:09.881Z,45.40
2019-02-27T21:13:42.398Z,45.40
2019-02-27T21:16:15.066Z,45.40
2019-02-27T21:18:48.055Z,45.60
2019-02-27T21:21:38.828Z,45.80
2019-02-27T21:24:20.143Z,45.90
2019-02-27T21:26:57.954Z,46.10
2019-02-27T21:29:31.851Z,45.80
2019-02-27T21:32:04.449Z,45.90
2019-02-27T21:34:37.028Z,45.70
2019-02-27T21:37:09.991Z,45.70
2019-02-27T21:39:42.920Z,45.70
2019-02-27T21:42:18.375Z,45.70
2019-02-27T21:44:49.905Z,45.90
2019-02-27T21:47:22.361Z,45.90
2019-02-27T21:49:54.930Z,45.90
2019-02-27T21:52:27.545Z,45.80
2019-02-27T21:54:59.882Z,45.80
2019-02-27T21:57:32.049Z,45.80
2019-02-27T22:00:05.356Z,46.20
2019-02-27T22:02:38.099Z,46.00
2019-02-27T22:05:11.623Z,46.20
2019-02-27T22:07:43.995Z,46.00
2019-02-27T22:10:19.562Z,45.80
2019-02-27T22:12:51.934Z,46.00
2019-02-27T22:15:28.427Z,45.40
2019-02-27T22:18:01.106Z,46.30
2019-02-27T22:20:35.672Z,46.20
2019-02-27T22:23:08.337Z,46.40
2019-02-27T22:25:41.122Z,45.90
2019-02-27T22:28:17.220Z,46.40
2019-02-27T22:30:51.346Z,46.50
2019-02-27T22:33:24.055Z,46.20
2019-02-27T22:35:56.300Z,46.40
2019-02-27T22:38:28.905Z,46.20
2019-02-27T22:41:01.393Z,46.50
2019-02-27T22:43:35.117Z,46.20
2019-02-27T22:46:07.884Z,46.50
2019-02-27T22:48:40.913Z,46.40
2019-02-27T22:51:13.522Z,46.50
2019-02-27T22:53:45.919Z,46.40
2019-02-27T22:56:18.336Z,46.50
2019-02-27T22:58:51.657Z,46.40
2019-02-27T23:01:35.725Z,46.50
2019-02-27T23:04:09.791Z,46.70
2019-02-27T23:06:47.010Z,46.30
2019-02-27T23:09:18.911Z,46.40
2019-02-27T23:11:51.173Z,46.60
2019-02-27T23:14:23.873Z,46.70
2019-02-27T23:16:57.019Z,47.00
2019-02-27T23:19:29.928Z,46.40
2019-02-27T23:22:02.713Z,46.20
2019-02-27T23:24:36.299Z,46.30
2019-02-27T23:27:08.930Z,46.30
2019-02-27T23:29:42.098Z,46.80
2019-02-27T23:32:15.356Z,46.70
2019-02-27T23:34:47.907Z,46.70
2019-02-27T23:37:20.110Z,46.80
2019-02-27T23:39:53.327Z,46.90
2019-02-27T23:42:27.919Z,46.70
2019-02-27T23:45:00.853Z,46.90
2019-02-27T23:47:33.014Z,46.90
2019-02-27T23:50:05.644Z,47.10
2019-02-27T23:52:39.335Z,46.90
2019-02-27T23:55:11.663Z,46.10
2019-02-27T23:57:43.919Z,46.90
